CheckWX is a tool to help pilots better visualize weather data.  It is not intended as a substitute for an official pre-flight weather briefing.

21:03:41 UTC

KNCA METAR
New River MCAS / H / / McCutcheon Field / Airport
Jacksonville, North Carolina, USA
Current

8 mins ago

KNCA 232056Z 17012G17KT 10SM SCT048 SCT150 28/19 A3016 RMK AO2 SLP215 T02780194 56022
Observed
May-23 @ 20:56 UTC
Wind
  • 170° at 12 KTS
  • Gusting to 17 KTS
Visibility
10 SM
Flight Rules
VFR
Cloud Levels
  • Scattered at 4,800' AGL
  • Scattered at 15,000' AGL
Temperature
28°C / 82°F
Dewpoint
19°C / 66°F
Heat Index
29°C / 84°F
Humidity
58%
Altimeter
30.16" Hg
Pressure
1021.32 hPa
Previous

1 hour ago

KNCA 231956Z 20011KT 10SM SCT048 BKN055 28/19 A3018 RMK AO2 SLP223 T02830189
Observed
May-23 @ 19:56 UTC
Wind
  • 200° at 11 KTS
Visibility
10 SM
Flight Rules
VFR
Cloud Levels
  • Scattered at 4,800' AGL
  • Broken at 5,500' AGL
Temperature
28°C / 82°F
Dewpoint
19°C / 66°F
Heat Index
29°C / 84°F
Humidity
58%
Altimeter
30.18" Hg
Pressure
1022.02 hPa
Previous

2 hours ago

KNCA 231856Z 18010KT 10SM BKN055 BKN120 28/19 A3020 RMK AO2 SLP229 T02830194
Observed
May-23 @ 18:56 UTC
Wind
  • 180° at 10 KTS
Visibility
10 SM
Flight Rules
VFR
Cloud Levels
  • Broken at 5,500' AGL
  • Broken at 12,000' AGL
Temperature
28°C / 82°F
Dewpoint
19°C / 66°F
Heat Index
29°C / 84°F
Humidity
58%
Altimeter
30.2" Hg
Pressure
1022.72 hPa